sensor_id;sensor_type;location;lat;lon;timestamp;temperature;humidity
14473;DHT22;7322;50.872;4.386;2023-07-24T00:00:32;23.60;99.90
14473;DHT22;7322;50.872;4.386;2023-07-24T00:03:02;23.60;99.90
14473;DHT22;7322;50.872;4.386;2023-07-24T00:05:29;23.50;99.90
14473;DHT22;7322;50.872;4.386;2023-07-24T00:07:56;23.60;99.90
14473;DHT22;7322;50.872;4.386;2023-07-24T00:10:23;23.60;99.90
14473;DHT22;7322;50.872;4.386;2023-07-24T00:12:50;23.60;99.90
14473;DHT22;7322;50.872;4.386;2023-07-24T00:15:17;23.60;99.90
14473;DHT22;7322;50.872;4.386;2023-07-24T00:17:44;23.60;99.90
14473;DHT22;7322;50.872;4.386;2023-07-24T00:20:12;23.60;99.90
14473;DHT22;7322;50.872;4.386;2023-07-24T00:22:39;23.60;99.90
14473;DHT22;7322;50.872;4.386;2023-07-24T00:25:06;23.60;99.90
14473;DHT22;7322;50.872;4.386;2023-07-24T00:27:34;23.70;99.90
14473;DHT22;7322;50.872;4.386;2023-07-24T00:30:01;23.70;99.90
14473;DHT22;7322;50.872;4.386;2023-07-24T00:32:28;23.70;99.90
14473;DHT22;7322;50.872;4.386;2023-07-24T00:34:55;23.60;99.90
14473;DHT22;7322;50.872;4.386;2023-07-24T00:37:24;23.60;99.90
14473;DHT22;7322;50.872;4.386;2023-07-24T00:39:51;23.70;99.90
14473;DHT22;7322;50.872;4.386;2023-07-24T00:42:18;23.70;99.90
14473;DHT22;7322;50.872;4.386;2023-07-24T00:44:44;23.80;99.90
14473;DHT22;7322;50.872;4.386;2023-07-24T00:47:11;23.80;99.90
14473;DHT22;7322;50.872;4.386;2023-07-24T00:49:38;23.80;99.90
14473;DHT22;7322;50.872;4.386;2023-07-24T00:52:07;23.80;99.90
14473;DHT22;7322;50.872;4.386;2023-07-24T00:54:35;23.80;99.90
14473;DHT22;7322;50.872;4.386;2023-07-24T00:57:03;23.80;99.90
14473;DHT22;7322;50.872;4.386;2023-07-24T00:59:31;23.70;99.90
14473;DHT22;7322;50.872;4.386;2023-07-24T01:01:59;23.70;99.90
14473;DHT22;7322;50.872;4.386;2023-07-24T01:04:26;23.80;99.90
14473;DHT22;7322;50.872;4.386;2023-07-24T01:06:53;23.80;99.90
14473;DHT22;7322;50.872;4.386;2023-07-24T01:09:21;23.80;99.90
14473;DHT22;7322;50.872;4.386;2023-07-24T01:12:04;23.80;99.90
14473;DHT22;7322;50.872;4.386;2023-07-24T01:14:39;23.80;99.90
14473;DHT22;7322;50.872;4.386;2023-07-24T01:17:10;23.80;99.90
14473;DHT22;7322;50.872;4.386;2023-07-24T01:19:42;23.90;99.90
14473;DHT22;7322;50.872;4.386;2023-07-24T01:22:14;24.00;99.90
14473;DHT22;7322;50.872;4.386;2023-07-24T01:24:52;23.90;99.90
14473;DHT22;7322;50.872;4.386;2023-07-24T01:27:25;23.80;99.90
14473;DHT22;7322;50.872;4.386;2023-07-24T01:29:52;23.80;99.90
14473;DHT22;7322;50.872;4.386;2023-07-24T01:32:19;23.60;99.90
14473;DHT22;7322;50.872;4.386;2023-07-24T01:34:46;23.60;99.90
14473;DHT22;7322;50.872;4.386;2023-07-24T01:37:14;23.50;99.90
14473;DHT22;7322;50.872;4.386;2023-07-24T01:39:42;23.50;99.90
14473;DHT22;7322;50.872;4.386;2023-07-24T01:42:10;23.40;99.90
14473;DHT22;7322;50.872;4.386;2023-07-24T01:44:39;23.50;99.90
14473;DHT22;7322;50.872;4.386;2023-07-24T01:47:06;23.40;99.90
14473;DHT22;7322;50.872;4.386;2023-07-24T01:49:33;23.40;99.90
14473;DHT22;7322;50.872;4.386;2023-07-24T01:52:00;23.50;99.90
14473;DHT22;7322;50.872;4.386;2023-07-24T01:54:27;23.60;99.90
14473;DHT22;7322;50.872;4.386;2023-07-24T01:56:54;23.70;99.90
14473;DHT22;7322;50.872;4.386;2023-07-24T01:59:21;23.60;99.90
14473;DHT22;7322;50.872;4.386;2023-07-24T02:01:49;23.60;99.90
14473;DHT22;7322;50.872;4.386;2023-07-24T02:04:16;23.60;99.90
14473;DHT22;7322;50.872;4.386;2023-07-24T02:06:43;23.60;99.90
14473;DHT22;7322;50.872;4.386;2023-07-24T02:09:10;23.60;99.90
14473;DHT22;7322;50.872;4.386;2023-07-24T02:11:37;23.60;99.90
14473;DHT22;7322;50.872;4.386;2023-07-24T02:14:04;23.60;99.90
14473;DHT22;7322;50.872;4.386;2023-07-24T02:16:31;23.50;99.90
14473;DHT22;7322;50.872;4.386;2023-07-24T02:18:59;23.60;99.90
14473;DHT22;7322;50.872;4.386;2023-07-24T02:21:26;23.60;99.90
14473;DHT22;7322;50.872;4.386;2023-07-24T02:23:53;23.50;99.90
14473;DHT22;7322;50.872;4.386;2023-07-24T02:26:20;23.50;99.90
14473;DHT22;7322;50.872;4.386;2023-07-24T02:28:47;23.50;99.90
14473;DHT22;7322;50.872;4.386;2023-07-24T02:31:14;23.40;99.90
14473;DHT22;7322;50.872;4.386;2023-07-24T02:33:41;23.40;99.90
14473;DHT22;7322;50.872;4.386;2023-07-24T02:36:10;23.40;99.90
14473;DHT22;7322;50.872;4.386;2023-07-24T02:38:36;23.40;99.90
14473;DHT22;7322;50.872;4.386;2023-07-24T02:41:03;23.30;99.90
14473;DHT22;7322;50.872;4.386;2023-07-24T02:43:30;23.30;99.90
14473;DHT22;7322;50.872;4.386;2023-07-24T02:46:00;23.30;99.90
14473;DHT22;7322;50.872;4.386;2023-07-24T02:48:28;23.30;99.90
14473;DHT22;7322;50.872;4.386;2023-07-24T02:50:55;23.30;99.90
14473;DHT22;7322;50.872;4.386;2023-07-24T02:53:24;23.20;99.90
14473;DHT22;7322;50.872;4.386;2023-07-24T02:55:51;23.20;99.90
14473;DHT22;7322;50.872;4.386;2023-07-24T02:58:18;23.10;99.90
14473;DHT22;7322;50.872;4.386;2023-07-24T03:00:45;23.10;99.90
14473;DHT22;7322;50.872;4.386;2023-07-24T03:03:13;23.10;99.90
14473;DHT22;7322;50.872;4.386;2023-07-24T03:05:40;23.20;99.90
14473;DHT22;7322;50.872;4.386;2023-07-24T03:08:07;23.20;99.90
14473;DHT22;7322;50.872;4.386;2023-07-24T03:10:35;23.20;99.90
14473;DHT22;7322;50.872;4.386;2023-07-24T03:13:06;23.20;99.90
14473;DHT22;7322;50.872;4.386;2023-07-24T03:15:33;23.30;99.90
14473;DHT22;7322;50.872;4.386;2023-07-24T03:18:00;23.30;99.90
14473;DHT22;7322;50.872;4.386;2023-07-24T03:20:27;23.40;99.90
14473;DHT22;7322;50.872;4.386;2023-07-24T03:22:54;23.40;99.90
14473;DHT22;7322;50.872;4.386;2023-07-24T03:25:21;23.50;99.90
14473;DHT22;7322;50.872;4.386;2023-07-24T03:27:49;23.50;99.90
14473;DHT22;7322;50.872;4.386;2023-07-24T03:30:16;23.40;99.90
14473;DHT22;7322;50.872;4.386;2023-07-24T03:32:43;23.40;99.90
14473;DHT22;7322;50.872;4.386;2023-07-24T03:35:10;23.30;99.90
14473;DHT22;7322;50.872;4.386;2023-07-24T03:37:37;23.30;99.90
14473;DHT22;7322;50.872;4.386;2023-07-24T03:40:05;23.20;99.90
14473;DHT22;7322;50.872;4.386;2023-07-24T03:42:32;23.20;99.90
14473;DHT22;7322;50.872;4.386;2023-07-24T03:45:01;23.10;99.90
14473;DHT22;7322;50.872;4.386;2023-07-24T03:47:28;23.20;99.90
14473;DHT22;7322;50.872;4.386;2023-07-24T03:49:54;23.20;99.90
14473;DHT22;7322;50.872;4.386;2023-07-24T03:52:21;23.20;99.90
14473;DHT22;7322;50.872;4.386;2023-07-24T03:54:48;23.10;99.90
14473;DHT22;7322;50.872;4.386;2023-07-24T03:57:15;23.20;99.90
14473;DHT22;7322;50.872;4.386;2023-07-24T03:59:42;23.20;99.90
14473;DHT22;7322;50.872;4.386;2023-07-24T04:02:10;23.10;99.90
14473;DHT22;7322;50.872;4.386;2023-07-24T04:04:38;23.10;99.90
14473;DHT22;7322;50.872;4.386;2023-07-24T04:07:05;23.10;99.90
14473;DHT22;7322;50.872;4.386;2023-07-24T04:09:32;23.10;99.90
14473;DHT22;7322;50.872;4.386;2023-07-24T04:11:59;23.00;99.90
14473;DHT22;7322;50.872;4.386;2023-07-24T04:14:26;23.00;99.90
14473;DHT22;7322;50.872;4.386;2023-07-24T04:16:53;23.00;99.90
14473;DHT22;7322;50.872;4.386;2023-07-24T04:19:22;23.00;99.90
14473;DHT22;7322;50.872;4.386;2023-07-24T04:21:49;23.00;99.90
14473;DHT22;7322;50.872;4.386;2023-07-24T04:24:16;23.00;99.90
14473;DHT22;7322;50.872;4.386;2023-07-24T04:26:43;23.10;99.90
14473;DHT22;7322;50.872;4.386;2023-07-24T04:29:10;23.00;99.90
14473;DHT22;7322;50.872;4.386;2023-07-24T04:31:37;23.00;99.90
14473;DHT22;7322;50.872;4.386;2023-07-24T04:34:04;23.00;99.90
14473;DHT22;7322;50.872;4.386;2023-07-24T04:36:32;23.00;99.90
14473;DHT22;7322;50.872;4.386;2023-07-24T04:38:59;23.00;99.90
14473;DHT22;7322;50.872;4.386;2023-07-24T04:41:26;23.00;99.90
14473;DHT22;7322;50.872;4.386;2023-07-24T04:43:53;22.90;99.90
14473;DHT22;7322;50.872;4.386;2023-07-24T04:46:20;23.00;99.90
14473;DHT22;7322;50.872;4.386;2023-07-24T04:48:47;22.90;99.90
14473;DHT22;7322;50.872;4.386;2023-07-24T04:51:14;22.90;99.90
14473;DHT22;7322;50.872;4.386;2023-07-24T04:53:42;22.90;99.90
14473;DHT22;7322;50.872;4.386;2023-07-24T04:56:09;23.00;99.90
14473;DHT22;7322;50.872;4.386;2023-07-24T04:58:36;23.00;99.90
14473;DHT22;7322;50.872;4.386;2023-07-24T05:01:03;22.90;99.90
14473;DHT22;7322;50.872;4.386;2023-07-24T05:03:30;22.90;99.90
14473;DHT22;7322;50.872;4.386;2023-07-24T05:05:58;22.90;99.90
14473;DHT22;7322;50.872;4.386;2023-07-24T05:08:26;22.90;99.90
14473;DHT22;7322;50.872;4.386;2023-07-24T05:10:57;22.90;99.90
14473;DHT22;7322;50.872;4.386;2023-07-24T05:13:24;23.00;99.90
14473;DHT22;7322;50.872;4.386;2023-07-24T05:15:51;23.10;99.90
14473;DHT22;7322;50.872;4.386;2023-07-24T05:18:18;23.10;99.90
14473;DHT22;7322;50.872;4.386;2023-07-24T05:20:45;23.20;99.90
14473;DHT22;7322;50.872;4.386;2023-07-24T05:23:13;23.20;99.90
14473;DHT22;7322;50.872;4.386;2023-07-24T05:25:40;23.30;99.90
14473;DHT22;7322;50.872;4.386;2023-07-24T05:28:08;23.30;99.90
14473;DHT22;7322;50.872;4.386;2023-07-24T05:30:36;23.30;99.90
14473;DHT22;7322;50.872;4.386;2023-07-24T05:33:03;23.40;99.90
14473;DHT22;7322;50.872;4.386;2023-07-24T05:35:29;23.50;99.90
14473;DHT22;7322;50.872;4.386;2023-07-24T05:37:56;23.70;99.90
14473;DHT22;7322;50.872;4.386;2023-07-24T05:40:23;23.80;99.90
14473;DHT22;7322;50.872;4.386;2023-07-24T05:42:50;23.80;99.90
14473;DHT22;7322;50.872;4.386;2023-07-24T05:45:18;23.80;99.90
14473;DHT22;7322;50.872;4.386;2023-07-24T05:47:45;24.00;99.90
14473;DHT22;7322;50.872;4.386;2023-07-24T05:50:12;24.10;99.90
14473;DHT22;7322;50.872;4.386;2023-07-24T05:52:40;24.20;99.90
14473;DHT22;7322;50.872;4.386;2023-07-24T05:55:07;24.40;99.90
14473;DHT22;7322;50.872;4.386;2023-07-24T05:57:36;24.50;99.90
14473;DHT22;7322;50.872;4.386;2023-07-24T06:00:03;24.50;99.90
14473;DHT22;7322;50.872;4.386;2023-07-24T06:02:32;24.60;99.90
14473;DHT22;7322;50.872;4.386;2023-07-24T06:04:59;24.70;99.90
14473;DHT22;7322;50.872;4.386;2023-07-24T06:07:26;24.70;99.90
14473;DHT22;7322;50.872;4.386;2023-07-24T06:09:53;24.70;99.90
14473;DHT22;7322;50.872;4.386;2023-07-24T06:12:20;24.80;99.90
14473;DHT22;7322;50.872;4.386;2023-07-24T06:14:47;24.80;99.90
14473;DHT22;7322;50.872;4.386;2023-07-24T06:17:14;24.80;99.90
14473;DHT22;7322;50.872;4.386;2023-07-24T06:19:43;24.70;99.90
14473;DHT22;7322;50.872;4.386;2023-07-24T06:22:10;24.80;99.90
14473;DHT22;7322;50.872;4.386;2023-07-24T06:24:37;24.80;99.90
14473;DHT22;7322;50.872;4.386;2023-07-24T06:27:04;24.90;99.90
14473;DHT22;7322;50.872;4.386;2023-07-24T06:29:33;24.90;99.90
14473;DHT22;7322;50.872;4.386;2023-07-24T06:31:59;25.00;99.90
14473;DHT22;7322;50.872;4.386;2023-07-24T06:34:26;24.90;99.90
14473;DHT22;7322;50.872;4.386;2023-07-24T06:36:55;25.00;99.90
14473;DHT22;7322;50.872;4.386;2023-07-24T06:39:22;25.00;99.90
14473;DHT22;7322;50.872;4.386;2023-07-24T06:41:50;25.00;99.90
14473;DHT22;7322;50.872;4.386;2023-07-24T06:44:17;25.00;99.90
14473;DHT22;7322;50.872;4.386;2023-07-24T06:46:44;25.00;99.90
14473;DHT22;7322;50.872;4.386;2023-07-24T06:49:11;25.10;99.90
14473;DHT22;7322;50.872;4.386;2023-07-24T06:51:38;25.10;99.90
14473;DHT22;7322;50.872;4.386;2023-07-24T06:54:06;25.10;99.90
14473;DHT22;7322;50.872;4.386;2023-07-24T06:56:33;25.00;99.90
14473;DHT22;7322;50.872;4.386;2023-07-24T06:59:00;25.10;99.90
14473;DHT22;7322;50.872;4.386;2023-07-24T07:01:27;25.10;99.90
14473;DHT22;7322;50.872;4.386;2023-07-24T07:03:54;25.10;99.90
14473;DHT22;7322;50.872;4.386;2023-07-24T07:06:21;25.10;99.90
14473;DHT22;7322;50.872;4.386;2023-07-24T07:08:48;25.20;99.90
14473;DHT22;7322;50.872;4.386;2023-07-24T07:11:17;25.20;99.90
14473;DHT22;7322;50.872;4.386;2023-07-24T07:13:44;25.20;99.90
14473;DHT22;7322;50.872;4.386;2023-07-24T07:16:11;25.20;99.90
14473;DHT22;7322;50.872;4.386;2023-07-24T07:18:38;25.20;99.90
14473;DHT22;7322;50.872;4.386;2023-07-24T07:21:05;25.20;99.90
14473;DHT22;7322;50.872;4.386;2023-07-24T07:23:32;25.20;99.90
14473;DHT22;7322;50.872;4.386;2023-07-24T07:25:59;25.20;99.90
14473;DHT22;7322;50.872;4.386;2023-07-24T07:28:27;25.20;99.90
14473;DHT22;7322;50.872;4.386;2023-07-24T07:30:54;25.10;99.90
14473;DHT22;7322;50.872;4.386;2023-07-24T07:33:21;25.00;99.90
14473;DHT22;7322;50.872;4.386;2023-07-24T07:35:48;25.00;99.90
14473;DHT22;7322;50.872;4.386;2023-07-24T07:38:15;25.10;99.90
14473;DHT22;7322;50.872;4.386;2023-07-24T07:40:43;25.10;99.90
14473;DHT22;7322;50.872;4.386;2023-07-24T07:43:10;25.10;99.90
14473;DHT22;7322;50.872;4.386;2023-07-24T07:45:38;25.10;99.90
14473;DHT22;7322;50.872;4.386;2023-07-24T07:48:05;25.10;99.90
14473;DHT22;7322;50.872;4.386;2023-07-24T07:50:32;25.20;99.90
14473;DHT22;7322;50.872;4.386;2023-07-24T07:52:59;25.10;99.90
14473;DHT22;7322;50.872;4.386;2023-07-24T07:55:26;25.10;99.90
14473;DHT22;7322;50.872;4.386;2023-07-24T07:57:53;25.10;99.90
14473;DHT22;7322;50.872;4.386;2023-07-24T08:00:20;25.10;99.90
14473;DHT22;7322;50.872;4.386;2023-07-24T08:02:49;25.10;99.90
14473;DHT22;7322;50.872;4.386;2023-07-24T08:05:15;25.20;99.90
14473;DHT22;7322;50.872;4.386;2023-07-24T08:07:42;25.20;99.90
14473;DHT22;7322;50.872;4.386;2023-07-24T08:10:09;25.20;99.90
14473;DHT22;7322;50.872;4.386;2023-07-24T08:12:36;25.30;99.90
14473;DHT22;7322;50.872;4.386;2023-07-24T08:15:04;25.30;99.90
14473;DHT22;7322;50.872;4.386;2023-07-24T08:17:31;25.30;99.90
14473;DHT22;7322;50.872;4.386;2023-07-24T08:19:59;25.40;99.90
14473;DHT22;7322;50.872;4.386;2023-07-24T08:22:26;25.30;99.90
14473;DHT22;7322;50.872;4.386;2023-07-24T08:24:53;25.30;99.90
14473;DHT22;7322;50.872;4.386;2023-07-24T08:27:20;25.30;99.90
14473;DHT22;7322;50.872;4.386;2023-07-24T08:29:50;25.30;99.90
14473;DHT22;7322;50.872;4.386;2023-07-24T08:32:18;25.30;99.90
14473;DHT22;7322;50.872;4.386;2023-07-24T08:34:45;25.30;99.90
14473;DHT22;7322;50.872;4.386;2023-07-24T08:37:13;25.30;99.90
14473;DHT22;7322;50.872;4.386;2023-07-24T08:39:40;25.20;99.90
14473;DHT22;7322;50.872;4.386;2023-07-24T08:42:10;25.30;99.90
14473;DHT22;7322;50.872;4.386;2023-07-24T08:44:38;25.30;99.90
14473;DHT22;7322;50.872;4.386;2023-07-24T08:47:08;25.30;99.90
14473;DHT22;7322;50.872;4.386;2023-07-24T08:49:37;25.30;99.90
14473;DHT22;7322;50.872;4.386;2023-07-24T08:52:06;25.30;99.90
14473;DHT22;7322;50.872;4.386;2023-07-24T08:54:35;25.30;99.90
14473;DHT22;7322;50.872;4.386;2023-07-24T08:57:05;25.30;99.90
14473;DHT22;7322;50.872;4.386;2023-07-24T08:59:32;25.30;99.90
14473;DHT22;7322;50.872;4.386;2023-07-24T09:02:00;25.30;99.90
14473;DHT22;7322;50.872;4.386;2023-07-24T09:04:27;25.20;99.90
14473;DHT22;7322;50.872;4.386;2023-07-24T09:06:56;25.20;99.90
14473;DHT22;7322;50.872;4.386;2023-07-24T09:09:28;25.20;99.90
14473;DHT22;7322;50.872;4.386;2023-07-24T09:11:57;25.30;99.90
14473;DHT22;7322;50.872;4.386;2023-07-24T09:14:26;25.30;99.90
14473;DHT22;7322;50.872;4.386;2023-07-24T09:17:02;25.30;99.90
14473;DHT22;7322;50.872;4.386;2023-07-24T09:19:29;25.30;99.90
14473;DHT22;7322;50.872;4.386;2023-07-24T09:22:06;25.20;99.90
14473;DHT22;7322;50.872;4.386;2023-07-24T09:24:33;25.30;99.90
14473;DHT22;7322;50.872;4.386;2023-07-24T09:27:05;25.30;99.90
14473;DHT22;7322;50.872;4.386;2023-07-24T09:29:33;25.30;99.90
14473;DHT22;7322;50.872;4.386;2023-07-24T09:32:01;25.30;99.90
14473;DHT22;7322;50.872;4.386;2023-07-24T09:34:28;25.30;99.90
14473;DHT22;7322;50.872;4.386;2023-07-24T09:36:55;25.30;99.90
14473;DHT22;7322;50.872;4.386;2023-07-24T09:39:25;25.30;99.90
14473;DHT22;7322;50.872;4.386;2023-07-24T09:41:52;25.30;99.90
14473;DHT22;7322;50.872;4.386;2023-07-24T09:44:21;25.30;99.90
14473;DHT22;7322;50.872;4.386;2023-07-24T09:46:52;25.30;99.90
14473;DHT22;7322;50.872;4.386;2023-07-24T09:49:19;25.30;99.90
14473;DHT22;7322;50.872;4.386;2023-07-24T09:51:48;25.30;99.90
14473;DHT22;7322;50.872;4.386;2023-07-24T09:54:22;25.30;99.90
14473;DHT22;7322;50.872;4.386;2023-07-24T09:56:51;25.30;99.90
14473;DHT22;7322;50.872;4.386;2023-07-24T09:59:21;25.30;99.90
14473;DHT22;7322;50.872;4.386;2023-07-24T10:01:49;25.40;99.90
14473;DHT22;7322;50.872;4.386;2023-07-24T10:04:18;25.40;99.90
14473;DHT22;7322;50.872;4.386;2023-07-24T10:06:46;25.30;99.90
14473;DHT22;7322;50.872;4.386;2023-07-24T10:09:13;25.40;99.90
14473;DHT22;7322;50.872;4.386;2023-07-24T10:11:41;25.40;99.90
14473;DHT22;7322;50.872;4.386;2023-07-24T10:14:08;25.40;99.90
14473;DHT22;7322;50.872;4.386;2023-07-24T10:16:37;25.40;99.90
14473;DHT22;7322;50.872;4.386;2023-07-24T10:19:13;25.40;99.90
14473;DHT22;7322;50.872;4.386;2023-07-24T10:21:44;25.40;99.90
14473;DHT22;7322;50.872;4.386;2023-07-24T10:24:12;25.40;99.90
14473;DHT22;7322;50.872;4.386;2023-07-24T10:26:39;25.50;99.90
14473;DHT22;7322;50.872;4.386;2023-07-24T10:29:06;25.40;99.90
14473;DHT22;7322;50.872;4.386;2023-07-24T10:31:33;25.40;99.90
14473;DHT22;7322;50.872;4.386;2023-07-24T10:34:05;25.50;99.90
14473;DHT22;7322;50.872;4.386;2023-07-24T10:36:34;25.50;99.90
14473;DHT22;7322;50.872;4.386;2023-07-24T10:39:01;25.50;99.90
14473;DHT22;7322;50.872;4.386;2023-07-24T10:41:34;25.50;99.90
14473;DHT22;7322;50.872;4.386;2023-07-24T10:44:01;25.50;99.90
14473;DHT22;7322;50.872;4.386;2023-07-24T10:46:36;25.50;99.90
14473;DHT22;7322;50.872;4.386;2023-07-24T10:49:05;25.50;99.90
14473;DHT22;7322;50.872;4.386;2023-07-24T10:51:32;25.50;99.90
14473;DHT22;7322;50.872;4.386;2023-07-24T10:54:03;25.50;99.90
14473;DHT22;7322;50.872;4.386;2023-07-24T10:56:30;25.50;99.90
14473;DHT22;7322;50.872;4.386;2023-07-24T10:59:02;25.60;99.90
14473;DHT22;7322;50.872;4.386;2023-07-24T11:01:30;25.60;99.90
14473;DHT22;7322;50.872;4.386;2023-07-24T11:03:58;25.50;99.90
14473;DHT22;7322;50.872;4.386;2023-07-24T11:06:27;25.60;99.90
14473;DHT22;7322;50.872;4.386;2023-07-24T11:08:56;25.50;99.90
14473;DHT22;7322;50.872;4.386;2023-07-24T11:11:28;25.60;99.90
14473;DHT22;7322;50.872;4.386;2023-07-24T11:13:55;25.60;99.90
14473;DHT22;7322;50.872;4.386;2023-07-24T11:16:23;25.60;99.90
14473;DHT22;7322;50.872;4.386;2023-07-24T11:18:50;25.50;99.90
14473;DHT22;7322;50.872;4.386;2023-07-24T11:21:18;25.50;99.90
14473;DHT22;7322;50.872;4.386;2023-07-24T11:23:55;25.50;99.90
14473;DHT22;7322;50.872;4.386;2023-07-24T11:26:26;25.50;99.90
14473;DHT22;7322;50.872;4.386;2023-07-24T11:28:53;25.50;99.90
14473;DHT22;7322;50.872;4.386;2023-07-24T11:31:20;25.50;99.90
14473;DHT22;7322;50.872;4.386;2023-07-24T11:33:49;25.50;99.90
14473;DHT22;7322;50.872;4.386;2023-07-24T11:36:16;25.50;99.90
14473;DHT22;7322;50.872;4.386;2023-07-24T11:38:44;25.60;99.90
14473;DHT22;7322;50.872;4.386;2023-07-24T11:41:13;25.50;99.90
14473;DHT22;7322;50.872;4.386;2023-07-24T11:43:46;25.60;99.90
14473;DHT22;7322;50.872;4.386;2023-07-24T11:46:22;25.50;99.90
14473;DHT22;7322;50.872;4.386;2023-07-24T11:48:50;25.60;99.90
14473;DHT22;7322;50.872;4.386;2023-07-24T11:51:19;25.50;99.90
14473;DHT22;7322;50.872;4.386;2023-07-24T11:53:46;25.50;99.90
14473;DHT22;7322;50.872;4.386;2023-07-24T11:56:16;25.50;99.90
14473;DHT22;7322;50.872;4.386;2023-07-24T11:58:43;25.50;99.90
14473;DHT22;7322;50.872;4.386;2023-07-24T12:01:12;25.50;99.90
14473;DHT22;7322;50.872;4.386;2023-07-24T12:03:40;25.60;99.90
14473;DHT22;7322;50.872;4.386;2023-07-24T12:06:14;25.60;99.90
14473;DHT22;7322;50.872;4.386;2023-07-24T12:08:41;25.60;99.90
14473;DHT22;7322;50.872;4.386;2023-07-24T12:11:17;25.50;99.90
14473;DHT22;7322;50.872;4.386;2023-07-24T12:13:44;25.60;99.90
14473;DHT22;7322;50.872;4.386;2023-07-24T12:16:11;25.60;99.90
14473;DHT22;7322;50.872;4.386;2023-07-24T12:18:38;25.60;99.90
14473;DHT22;7322;50.872;4.386;2023-07-24T12:21:05;25.60;99.90
14473;DHT22;7322;50.872;4.386;2023-07-24T12:23:32;25.60;99.90
14473;DHT22;7322;50.872;4.386;2023-07-24T12:25:59;25.60;99.90
14473;DHT22;7322;50.872;4.386;2023-07-24T12:28:27;25.60;99.90
14473;DHT22;7322;50.872;4.386;2023-07-24T12:30:54;25.60;99.90
14473;DHT22;7322;50.872;4.386;2023-07-24T12:33:21;25.60;99.90
14473;DHT22;7322;50.872;4.386;2023-07-24T12:35:49;25.60;99.90
14473;DHT22;7322;50.872;4.386;2023-07-24T12:38:16;25.60;99.90
14473;DHT22;7322;50.872;4.386;2023-07-24T12:40:43;25.60;99.90
14473;DHT22;7322;50.872;4.386;2023-07-24T12:43:10;25.60;99.90
14473;DHT22;7322;50.872;4.386;2023-07-24T12:45:38;25.50;99.90
14473;DHT22;7322;50.872;4.386;2023-07-24T12:48:05;25.50;99.90
14473;DHT22;7322;50.872;4.386;2023-07-24T12:50:33;25.60;99.90
14473;DHT22;7322;50.872;4.386;2023-07-24T12:53:00;25.50;99.90
14473;DHT22;7322;50.872;4.386;2023-07-24T12:55:27;25.50;99.90
14473;DHT22;7322;50.872;4.386;2023-07-24T12:57:55;25.50;99.90
14473;DHT22;7322;50.872;4.386;2023-07-24T13:00:22;25.50;99.90
14473;DHT22;7322;50.872;4.386;2023-07-24T13:02:51;25.50;99.90
14473;DHT22;7322;50.872;4.386;2023-07-24T13:05:18;25.50;99.90
14473;DHT22;7322;50.872;4.386;2023-07-24T13:07:45;25.50;99.90
14473;DHT22;7322;50.872;4.386;2023-07-24T13:10:12;25.50;99.90
14473;DHT22;7322;50.872;4.386;2023-07-24T13:12:39;25.50;99.90
14473;DHT22;7322;50.872;4.386;2023-07-24T13:15:06;25.50;99.90
14473;DHT22;7322;50.872;4.386;2023-07-24T13:17:33;25.50;99.90
14473;DHT22;7322;50.872;4.386;2023-07-24T13:20:04;25.50;99.90
14473;DHT22;7322;50.872;4.386;2023-07-24T13:22:31;25.60;99.90
14473;DHT22;7322;50.872;4.386;2023-07-24T13:24:58;25.60;99.90
14473;DHT22;7322;50.872;4.386;2023-07-24T13:27:25;25.60;99.90
14473;DHT22;7322;50.872;4.386;2023-07-24T13:29:52;25.60;99.90
14473;DHT22;7322;50.872;4.386;2023-07-24T13:32:19;25.60;99.90
14473;DHT22;7322;50.872;4.386;2023-07-24T13:34:46;25.60;99.90
14473;DHT22;7322;50.872;4.386;2023-07-24T13:37:14;25.60;99.90
14473;DHT22;7322;50.872;4.386;2023-07-24T13:39:41;25.60;99.90
14473;DHT22;7322;50.872;4.386;2023-07-24T13:42:08;25.70;99.90
14473;DHT22;7322;50.872;4.386;2023-07-24T13:44:35;25.70;99.90
14473;DHT22;7322;50.872;4.386;2023-07-24T13:47:02;25.60;99.90
14473;DHT22;7322;50.872;4.386;2023-07-24T13:49:30;25.60;99.90
14473;DHT22;7322;50.872;4.386;2023-07-24T13:51:57;25.60;99.90
14473;DHT22;7322;50.872;4.386;2023-07-24T13:54:25;25.60;99.90
14473;DHT22;7322;50.872;4.386;2023-07-24T13:56:53;25.60;99.90
14473;DHT22;7322;50.872;4.386;2023-07-24T13:59:20;25.70;99.90
14473;DHT22;7322;50.872;4.386;2023-07-24T14:01:46;25.60;99.90
14473;DHT22;7322;50.872;4.386;2023-07-24T14:04:13;25.70;99.90
14473;DHT22;7322;50.872;4.386;2023-07-24T14:06:41;25.60;99.90
14473;DHT22;7322;50.872;4.386;2023-07-24T14:09:07;25.70;99.90
14473;DHT22;7322;50.872;4.386;2023-07-24T14:11:36;25.70;99.90
14473;DHT22;7322;50.872;4.386;2023-07-24T14:14:02;25.70;99.90
14473;DHT22;7322;50.872;4.386;2023-07-24T14:16:29;25.70;99.90
14473;DHT22;7322;50.872;4.386;2023-07-24T14:18:56;25.70;99.90
14473;DHT22;7322;50.872;4.386;2023-07-24T14:21:23;25.70;99.90
14473;DHT22;7322;50.872;4.386;2023-07-24T14:23:50;25.70;99.90
14473;DHT22;7322;50.872;4.386;2023-07-24T14:26:17;25.70;99.90
14473;DHT22;7322;50.872;4.386;2023-07-24T14:28:45;25.70;99.90
14473;DHT22;7322;50.872;4.386;2023-07-24T14:31:12;25.70;99.90
14473;DHT22;7322;50.872;4.386;2023-07-24T14:33:39;25.70;99.90
14473;DHT22;7322;50.872;4.386;2023-07-24T14:36:06;25.70;99.90
14473;DHT22;7322;50.872;4.386;2023-07-24T14:38:33;25.70;99.90
14473;DHT22;7322;50.872;4.386;2023-07-24T14:41:00;25.70;99.90
14473;DHT22;7322;50.872;4.386;2023-07-24T14:43:27;25.60;99.90
14473;DHT22;7322;50.872;4.386;2023-07-24T14:45:55;25.50;99.90
14473;DHT22;7322;50.872;4.386;2023-07-24T14:48:22;25.30;99.90
14473;DHT22;7322;50.872;4.386;2023-07-24T14:50:49;25.30;99.90
14473;DHT22;7322;50.872;4.386;2023-07-24T14:53:16;25.30;99.90
14473;DHT22;7322;50.872;4.386;2023-07-24T14:55:43;25.20;99.90
14473;DHT22;7322;50.872;4.386;2023-07-24T14:58:10;25.00;99.90
14473;DHT22;7322;50.872;4.386;2023-07-24T15:00:37;25.10;99.90
14473;DHT22;7322;50.872;4.386;2023-07-24T15:03:05;25.00;99.90
14473;DHT22;7322;50.872;4.386;2023-07-24T15:05:32;24.90;99.90
14473;DHT22;7322;50.872;4.386;2023-07-24T15:07:59;24.70;99.90
14473;DHT22;7322;50.872;4.386;2023-07-24T15:10:26;24.70;99.90
14473;DHT22;7322;50.872;4.386;2023-07-24T15:12:53;24.50;99.90
14473;DHT22;7322;50.872;4.386;2023-07-24T15:15:20;24.50;99.90
14473;DHT22;7322;50.872;4.386;2023-07-24T15:17:47;24.50;99.90
14473;DHT22;7322;50.872;4.386;2023-07-24T15:20:16;24.50;99.90
14473;DHT22;7322;50.872;4.386;2023-07-24T15:22:43;24.60;99.90
14473;DHT22;7322;50.872;4.386;2023-07-24T15:25:09;24.50;99.90
14473;DHT22;7322;50.872;4.386;2023-07-24T15:27:39;24.50;99.90
14473;DHT22;7322;50.872;4.386;2023-07-24T15:30:07;24.50;99.90
14473;DHT22;7322;50.872;4.386;2023-07-24T15:32:34;24.60;99.90
14473;DHT22;7322;50.872;4.386;2023-07-24T15:35:01;24.70;99.90
14473;DHT22;7322;50.872;4.386;2023-07-24T15:37:30;24.70;99.90
14473;DHT22;7322;50.872;4.386;2023-07-24T15:39:59;24.90;99.90
14473;DHT22;7322;50.872;4.386;2023-07-24T15:42:25;25.00;99.90
14473;DHT22;7322;50.872;4.386;2023-07-24T15:44:56;25.10;99.90
14473;DHT22;7322;50.872;4.386;2023-07-24T15:47:23;25.20;99.90